Terminal Aerodrome Forecast
Issued by NWS Birmingham, AL

Home | Current Version | Previous Version | Text Only | Print | Product List | Glossary On
Versions: 1 2 3 4 5 6 7 8 9 10 11 12 13 14 15 16
000
FTUS44 KBMX 052340
TAFBHM
TAF
KBHM 052340Z 0600/0624 09009KT P6SM -RA OVC006
      TEMPO 0600/0602 SCT009 SCT050 OVC100
     FM060600 13009KT 3SM -RA BR VCTS OVC004CB
     FM061000 20009KT 6SM -DZ BR OVC004
     FM061400 24009KT 6SM -DZ OVC012
     FM062100 28009KT P6SM OVC015=

USA.gov is the U.S. government's official web portal to all federal, state and local government web resources and services.